< < Back
Terminal Aerodrome Forecast


Current Version              Previous Versions:   1  2  3  4  5  6  7  8  9  

Terminal Aerodrome Forecast

120
FTUS42 KGSP 022320
TAFAND
TAF
KAND 022320Z 0300/0324 22010KT P6SM FEW030 SCT080 BKN120
     FM030300 20006KT P6SM SCT030 OVC070
      TEMPO 0303/0307 4SM -TSRA OVC025CB
     FM030900 21005KT 4SM BR OVC050
     FM031300 24010G17KT P6SM BKN050 PROB30 0314/0320 2SM -TSRA BR
      OVC025CB=



Latest METAR

097
SAUS70 KWBC 030100 RRD
MTRAND
METAR KAND 030056Z AUTO 20006KT 10SM CLR 22/18 A2991 RMK AO2 SLP119
T02170178


USA.gov is the U.S. government's official web portal to all federal, state and local government web resources and services.